Aérodrome :
LOGIN :

S'inscrire | Disclaimer

   EN    FR    IT 

 










Légende :    VFR   VFR Marginal   IFR   IFR Intensif   IFR Très Intensif
Visi : 
Plafond : 
>= 8 km
>= 3000ft
5 à 8 km
1000 à 3000 ft
1500m à 5 km
500 à 1000 ft
800 à 1500m
200 à 500 ft
< 800m
< 200 ft
Symboles :   Orages  Brouillard  Fortes neiges  Fortes précipitations  Vent > 20 kt
SIGMETs :   Divers  Orages  Givrage  Turbulence  Onde Orograph.  Cendres Volcan.






- Altitude de l'aérodrome : 1416 ft
- Code IATA : ZRH


LSZH - Zurich

DERNIER METAR :
  • 110350Z VRB01KT 9999 FEW020 BKN033 09/08 Q1008 NOSIG

METARs EXPIRÉS :
  • 110320Z AUTO VRB01KT 9999 SCT033 09/09 Q1008 NOSIG
  • 110250Z AUTO 33001KT 9999 FEW032 10/09 Q1008 NOSIG
  • 110220Z AUTO 01003KT 9999 SCT033 10/09 Q1008 NOSIG
  • 110150Z AUTO 34005KT 9999 FEW032 10/09 Q1009 NOSIG
  • 110120Z AUTO 30005KT 9999 FEW032 08/08 Q1008 BECMG 9999 SCT030

TAF TAF LSZH
Valide du 11 à 03h jusqu'au 12 à 09h UTC


110225Z 1103/1209 VRB02KT 9999 SCT035 TX14/1112Z TN08/1104Z TN09/1204Z
TEMPO 1106/1110 CAVOK
TEMPO 1109/1115 27010KT
TEMPO 1111/1203 SHRA BKN025
ATIS : +41 43 816 2295 (DEP) +41 43 816 2294 (ARR)



MET'MAP, la Météo Aéronautique d'un coup d'oeil ! - Copyright ORBIFLY Décembre 2007 - Disclaimer

ORBIFLY MET'MAP TEAM :

Programmation & Développement : Alexandra Zaïnal
Sur une idée originale de : Baudouin d'Aumeries
Assistance à la programmation : Marc-Olivier Méhu
Soutien technique & logistique : Manuel Goepfert

Contact : metmap@orbifly.com




SOURCES & CREDITS :

   NOAA